FlightSource - Aviation Photo Database

World Wide Airport Lookup


Search by ICAO
Or
Search by City

FlightSource.ca - Aviation Photo Database - Vxj Kronoberg Airport Information
Airport Identification
Name: Vxj Kronoberg Airport
ICAO: ESMX
IATA: VXO
Airport Location
City: Vxj
Region: G
Country: Sweden
Continent: Europe
Latitude: 56.9291
Longitude: 14.728
Airport Information
Type: Medium Airport
Elevation: 610 Feet ASL
Flight Status: ESMX
More Info: ESMX
Airport Weather    
Metar: ESMX 210820Z 04006KT 9999 BKN005 10/09 Q1020
TAF:


Advertisement